To NAV CANADA Home Page Login to a new session Search on AWWS site Feedback and Comments Disclaimer Vers la page française équivalente Tips FAQ What's new on the site To the Forecasts and Observations / NOTAM section To "File a Flight Plan" website Publications and other links Update of the User's profile FIC Telephone Numbers My Weather Data Folder Route Weather Data Regional Weather Data Local Weather Data To the Forecasts and Observations / NOTAM section
Request Generated 08/22/2017 at 03:27:23 UTC . Weather information available at that time is displayed.

METAR/TAF

STEPHENVILLE/NL    

METAR CYJT 220300Z 18004KT 15SM FEW012 OVC200 17/15 A2984 RMK SF2CI6
SLP108 DENSITY ALT 500FT=
METAR CYJT 220200Z 21006KT 15SM FEW012 OVC200 18/16 A2986 RMK SF2CI6
SLP114 DENSITY ALT 500FT=
METAR CYJT 220100Z 22010KT 15SM SCT011 OVC020 18/17 A2988 RMK SF3SC5
SLP120 DENSITY ALT 500FT=

TAF AMD CYJT 220023Z 2200/2224 23010KT P6SM FEW012 BKN020 OVC090
TEMPO 2200/2204 SCT020 BKN090
FM220400 10005KT P6SM SCT020 OVC090
FM220600 10006KT P6SM SCT070 TEMPO 2206/2209 P6SM -SHRA BKN070
PROB30 2206/2209 VRB15G25KT 3SM TSRA BR BKN050CB
FM220900 23012G22KT P6SM SCT070
BECMG 2210/2212 26012G22KT
FM221500 27012G22KT P6SM SCT020
BECMG 2218/2220 27010KT
BECMG 2222/2224 VRB03KT
RMK NXT FCST BY 220600Z=
Your time UTC time
Weather data provided by Environment Canada and NAV CANADA